Caliente, Nevada Weather observations

Data are for observation ending at time listed.
 Day   Time    Ave.   Ave.  Ave.  Vector   Max.   Stn.    Total    Solar   Ave.  
  of    of     Air    Rel.  Wind   Wind    Wind   Baro.  Precip.   Rad.    Soil  
Year   Day     Temp.  Hum.  Speed  Dir.    Gust   Pres.                    Temp. 
2014   (PST)    F      %     mph   deg.    mph     mb.     in.     W/m2     F   
------------------------------------------------------------------------------
 243    4:10   57.3    43    0.1   304      1.3   863.8    0.00       0    78.8
 243    4:20   56.5    44    0.6   124      1.9   863.9    0.00       0    78.6
 243    4:30   55.9    45    0.5   204      2.3   864.0    0.00       0    78.5
 243    4:40   55.7    47    0.4    33      1.7   864.0    0.00       0    78.3
 243    4:50   55.3    46    0.9    69      2.9   864.1    0.00       0    78.1
 243    5:00   55.1    46    1.5    90      2.9   864.2    0.00       0    77.9
 243    5:10   55.5    43    2.6    98      5.2   864.3    0.00       3    77.8
 243    5:20   56.4    41    1.8    50      4.5   864.5    0.00       5    77.6
 243    5:30   55.9    44    1.4    51      4.2   864.7    0.00       9    77.4
 243    5:40   55.2    46    1.4   128      2.7   864.9    0.00      14    77.2
 243    5:50   55.3    45    1.0    98      2.9   865.1    0.00      20    77.1
 243    6:00   55.4    45    1.6   101      3.0   865.2    0.00      44    76.9
 243    6:10   56.1    43    1.7   103      3.7   865.3    0.00      68    76.7
 243    6:20   57.3    41    1.4    59      5.2   865.4    0.00     121    76.6
 243    6:30   58.1    41    1.6   112      4.6   865.5    0.00     155    76.4
 243    6:40   59.5    40    0.5   103      1.9   865.6    0.00     194    76.3
 243    6:50   61.6    38    1.5   104      2.4   865.7    0.00     225    76.2
 243    7:00   63.7    34    1.1    79      3.7   865.7    0.00     258    76.0
 243    7:10   65.7    32    2.1    58      5.6   865.8    0.00     281    75.9
 243    7:20   67.4    29    2.3    41      5.7   865.8    0.00     309    75.8
 243    7:30   68.9    27    2.6    25      4.9   865.9    0.00     336    75.7
 243    7:40   70.2    25    2.8    27      4.6   866.0    0.00     363    75.7
 243    7:50   71.5    22    3.0    33      6.7   866.0    0.00     388    75.6
 243    8:00   72.4    21    2.8    55      6.0   866.0    0.00     412    75.6
 243    8:10   73.3    20    3.9    29      6.9   866.0    0.00     437    75.6
 243    8:20   74.0    19    3.5    31      6.8   866.0    0.00     460    75.6
 243    8:30   75.2    19    3.5     1      5.8   866.0    0.00     483    75.7
 243    8:40   76.4    18    3.4     5      6.0   866.0    0.00     506    75.7
 243    8:50   77.5    18    3.1     8      4.5   866.0    0.00     503    75.9
 243    9:00   78.2    16    2.9     2      4.8   866.0    0.00     363    76.0
 243    9:10   79.0    16    2.8     4      5.3   866.1    0.00     174    76.3
 243    9:20   80.2    15    1.7   358      3.4   866.0    0.00     582    76.6
 243    9:30   80.8    15    1.1    83      2.6   865.9    0.00     603    76.9
 243    9:40   81.7    14    1.4   120      4.1   865.8    0.00     620    77.1
 243    9:50   82.5    14    1.4   148      3.6   865.8    0.00     637    77.2
 243   10:00   82.9    13    1.1   145      3.7   865.8    0.00     655    77.4
 243   10:10   84.5    13    0.9   102      4.1   865.6    0.00     670    77.7
 243   10:20   84.7    12    1.3   232      3.9   865.6    0.00     679    78.0
 243   10:30   85.1    12    0.8   231      4.2   865.5    0.00     690    78.4
 243   10:40   85.8    11    1.2   314      6.3   865.5    0.00     702    78.8
 243   10:50   85.8    11    1.8    15      8.8   865.3    0.00     708    79.1
 243   11:00   85.4    12    4.1   119     10.0   865.2    0.00     710    79.2
 243   11:10   85.1    12    3.0   123      7.1   865.1    0.00     714    79.3
 243   11:20   85.7    12    3.2   114      8.3   865.0    0.00     721    79.4
 243   11:30   86.5    10    2.8   333      9.2   864.9    0.00     722    79.5
 243   11:40   86.3    10    3.1    96      7.7   864.8    0.00     723    79.6
 243   11:50   87.1    10    2.3    70      7.5   864.6    0.00     722    79.7
 243   12:00   87.9    10    3.0    45      7.6   864.5    0.00     720    79.7
 243   12:10   88.3    10    5.2   264     14.9   864.5    0.00     718    79.8
 243   12:20   88.1    10    6.9   273     19.6   864.5    0.00     715    80.0
 243   12:30   89.2    10    6.5   293     10.9   864.4    0.00     713    80.2
 243   12:40   88.6     9    3.7   280     10.6   864.4    0.00     706    80.3
 243   12:50   89.6     9    6.2   266     14.5   864.2    0.00     698    80.5
 243   13:00   89.3     9    6.0   263     14.2   864.2    0.00     687    80.7
 243   13:10   89.6     9    6.2   266     12.9   864.0    0.00     677    80.9
 243   13:20   90.4     9    5.2   294     13.2   863.9    0.00     663    81.3
 243   13:30   90.5     9    5.8   269     12.7   863.7    0.00     651    81.8
 243   13:40   90.8     9    4.2   282     11.1   863.6    0.00     636    82.4
 243   13:50   91.1     9    7.2   268     12.8   863.4    0.00     622    83.2
 243   14:00   91.3     8    9.9   256     17.8   863.2    0.00     606    84.0
 243   14:10   90.9     8   10.8   261     20.8   863.2    0.00     589    84.9
 243   14:20   91.1     8    9.6   274     17.5   863.1    0.00     570    85.7
 243   14:30   91.2     9    8.2   267     15.1   862.9    0.00     550    86.5
 243   14:40   91.6     9    6.9   269     14.0   862.8    0.00     527    87.3
 243   14:50   91.5     9    7.7   263     13.8   862.7    0.00     507    88.0
 243   15:00   92.2     9    9.0   266     20.6   862.6    0.00     484    88.7
 243   15:10   92.3     9    8.0   264     13.3   862.6    0.00     461    89.2
 243   15:20   91.9     9    8.4   272     15.6   862.5    0.00     436    89.8
 243   15:30   92.1     9    4.3   246     10.9   862.5    0.00     411    90.3
 243   15:40   92.6     9    4.7   251     12.2   862.4    0.00     387    90.8
 243   15:50   92.0     9    6.0   248     12.1   862.4    0.00     360    91.2
 243   16:00   91.4    10    3.8   245     12.1   862.4    0.00     337    91.6
 243   16:10   91.9     9    4.1   249     10.7   862.3    0.00     309    91.9
 243   16:20   92.0     9    4.4   263      9.1   862.3    0.00     281    92.2
 243   16:30   91.8     9    5.9   252     11.0   862.4    0.00     253    92.5
 243   16:40   91.1     9    7.4   249     13.4   862.4    0.00     225    92.8
 243   16:50   90.4    10    6.2   247     11.5   862.3    0.00     197    92.9
 243   17:00   90.1    10    5.3   245     11.5   862.3    0.00     170    93.0
 243   17:10   89.9    10    4.7   246     11.5   862.3    0.00     144    93.1
 243   17:20   89.4    10    7.5   248     12.6   862.3    0.00     118    93.1
 243   17:30   88.9    10    6.4   246     14.0   862.3    0.00      93    93.1
 243   17:40   88.7    10    4.0   246      7.8   862.3    0.00      66    93.1
 243   17:50   88.4    10    4.5   248      8.4   862.3    0.00      36    92.9
 243   18:00   87.5    10    3.1   244      6.4   862.4    0.00      10    92.8
 243   18:10   86.8    11    2.4   246      6.3   862.4    0.00       7    92.5
 243   18:20   85.4    12    0.8   238      4.2   862.4    0.00       3    92.2
 243   18:30   83.6    14    0.6   254      2.3   862.5    0.00       0    92.0
 243   18:40   81.9    16    0.4   104      1.4   862.6    0.00       0    91.7
 243   18:50   79.2    18    0.2   124      1.5   862.6    0.00       0    91.3
 243   19:00   78.0    19    0.2   122      1.1   862.7    0.00       0    90.9
 243   19:10   77.1    18    0.3   124      1.4   862.9    0.00       0    90.6
 243   19:20   77.0    19    0.6   284      1.6   863.1    0.00       0    90.4
 243   19:30   76.0    20    0.4   130      2.0   863.2    0.00       0    90.0
 243   19:40   75.1    22    0.2   268      1.3   863.3    0.00       0    89.7
 243   19:50   74.2    23    0.1   137      1.5   863.3    0.00       0    89.4
 243   20:00   72.9    22    0.8   109      1.9   863.4    0.00       0    89.1
 243   20:10   73.4    21    1.2   119      2.8   863.5    0.00       0    88.8
 243   20:20   73.7    20    0.7   116      1.8   863.6    0.00       0    88.5
 243   20:30   73.1    21    0.5   112      1.8   863.6    0.00       0    88.2
 243   20:40   72.2    22    0.7   110      1.7   863.6    0.00       0    87.9
 243   20:50   71.7    22    0.3    83      1.4   863.7    0.00       0    87.6
 243   21:00   71.5    22    0.8    47      1.9   863.7    0.00       0    87.3
 243   21:10   71.0    23    0.2   120      1.5   863.7    0.00       0    87.1
 243   21:20   69.6    24    0.4   116      1.6   863.8    0.00       0    86.9
 243   21:30   69.5    24    0.4    32      1.5   863.8    0.00       0    86.6
 243   21:40   69.3    25    0.4   153      1.8   863.9    0.00       0    86.4
 243   21:50   68.6    25    0.8   124      2.3   863.9    0.00       1    86.1
 243   22:00   68.3    26    0.2    14      1.5   863.9    0.00       1    85.9
 243   22:10   67.9    28    0.5    11      2.0   863.9    0.00       1    85.7
 243   22:20   67.7    27    1.0   104      3.6   863.9    0.00       0    85.4
 243   22:30   67.2    27    1.1    81      3.4   864.0    0.00       1    85.2
 243   22:40   67.7    25    1.1    96      2.9   864.0    0.00       1    85.0
 243   22:50   68.1    24    0.6   124      2.0   864.1    0.00       2    84.7
 243   23:00   67.9    24    1.0   118      2.2   864.2    0.00       1    84.5
 243   23:10   68.1    23    1.1   353      3.8   864.2    0.00       1    84.3
 243   23:20   66.8    26    1.4    33      3.2   864.3    0.00       1    84.1
 243   23:30   65.3    28    1.0    94      2.1   864.3    0.00       1    83.9
 243   23:40   64.6    29    0.8    75      2.0   864.4    0.00       1    83.7
 243   23:50   64.1    30    0.3   119      1.5   864.5    0.00       1    83.5
 244    0:00   63.1    31    0.8    93      2.0   864.5    0.00       1    83.3
 244    0:10   62.6    32    1.1    95      1.8   864.5    0.00       1    83.1
 244    0:20   62.0    32    0.9   143      3.1   864.5    0.00       1    82.9
 244    0:30   61.6    32    0.9    91      2.5   864.5    0.00       1    82.7
 244    0:40   61.7    31    1.6    95      3.1   864.6    0.00       1    82.4
 244    0:50   62.3    30    0.3    57      2.0   864.6    0.00       0    82.2
 244    1:00   61.3    33    0.9    62      2.0   864.7    0.00       0    82.0
 244    1:10   60.5    34    0.5    56      1.5   864.7    0.00       0    81.9
 244    1:20   60.0    35    0.7   101      1.6   864.9    0.00       0    81.6
 244    1:30   59.4    36    1.2   113      1.7   864.9    0.00       1    81.5
 244    1:40   59.0    36    1.5   112      2.3   865.0    0.00       0    81.2
 244    1:50   59.1    35    1.6   105      2.6   865.1    0.00       0    81.1
 244    2:00   58.9    35    1.2   107      2.9   865.1    0.00       0    80.9
 244    2:10   58.6    36    1.3   120      2.3   865.3    0.00       0    80.7
 244    2:20   58.3    35    1.5   351      4.7   865.3    0.00       0    80.5
 244    2:30   58.6    34    1.8    30      4.4   865.4    0.00       0    80.3
 244    2:40   57.7    38    1.3    92      2.6   865.4    0.00       0    80.1
 244    2:50   57.1    38    1.2   125      1.9   865.5    0.00       0    79.9
 244    3:00   57.0    38    0.9   154      2.0   865.6    0.00       0    79.7
 244    3:10   56.6    39    1.0   103      2.6   865.8    0.00       0    79.5
 244    3:20   56.5    39    1.2   108      2.9   865.9    0.00       0    79.3
 244    3:30   56.3    39    1.3   102      3.1   865.9    0.00       0    79.1
 244    3:40   56.5    40    1.1    60      3.6   866.0    0.00       0    79.0
 244    3:50   56.3    41    0.3   155      1.4   866.0    0.00       0    78.8
 244    4:00   55.9    42    0.3   174      1.3   866.1    0.00       0    78.6

Return to Caliente, Nevada graphs page.


Western Regional Climate Center,wrcc@dri.edu